Time;durP1;ratioP1;P1;durP2;ratioP2;P2;SDS_P1;SDS_P2;PMS_P1;PMS_P2;Temp;Humidity;BMP_temperature;BMP_pressure;BME280_temperature;BME280_humidity;BME280_pressure;Samples;Min_cycle;Max_cycle;Signal;HPM_P1;HPM_P2
2023/08/11 00:02:15;;;;;;;;;;;;;;;29.14;80.11;101873.50;5103692;28;19988;-55
2023/08/11 00:04:40;;;;;;;;;;;;;;;28.87;82.05;101872.25;5120647;28;19916;-53
2023/08/11 00:07:05;;;;;;;;;;;;;;;29.13;80.91;101869.13;5099709;28;19920;-55
2023/08/11 00:09:32;;;;;;;;;;;;;;;29.31;79.32;101869.44;5104305;28;19933;-53
2023/08/11 00:11:57;;;;;;;;;;;;;;;29.45;79.19;101866.75;5109541;28;19916;-55
2023/08/11 00:14:22;;;;;;;;;;;;;;;29.32;79.22;101866.38;5100659;28;19943;-55
2023/08/11 00:16:48;;;;;;;;;;;;;;;29.25;80.04;101868.69;5123187;28;19924;-52
2023/08/11 00:19:13;;;;;;;;;;;;;;;29.32;79.45;101871.91;5117569;28;19979;-53
2023/08/11 00:21:39;;;;;;;;;;;;;;;29.30;79.82;101871.38;5118769;28;19920;-54
2023/08/11 00:24:05;;;;;;;;;;;;;;;28.91;81.92;101867.78;5127047;28;19972;-52
2023/08/11 00:26:30;;;;;;;;;;;;;;;29.01;81.39;101869.56;5119876;28;19931;-55
2023/08/11 00:28:56;;;;;;;;;;;;;;;29.01;81.41;101860.50;5104992;28;19923;-51
2023/08/11 00:31:22;;;;;;;;;;;;;;;28.59;83.24;101868.44;5104335;28;19987;-53
2023/08/11 00:33:51;;;;;;;;;;;;;;;28.56;84.47;101869.03;5117513;28;20002;-53
2023/08/11 00:36:17;;;;;;;;;;;;;;;27.61;92.70;101865.50;5100193;28;19991;-55
2023/08/11 00:38:43;;;;;;;;;;;;;;;27.50;97.32;101863.94;5118043;28;19920;-52
2023/08/11 00:41:09;;;;;;;;;;;;;;;27.43;99.51;101869.75;5133468;28;19982;-51
2023/08/11 00:43:34;;;;;;;;;;;;;;;27.29;100.00;101864.06;5118763;28;19923;-51
2023/08/11 00:46:05;;;;;;;;;;;;;;;27.55;98.78;101855.69;5118279;28;19924;-51
2023/08/11 00:48:30;;;;;;;;;;;;;;;27.37;99.87;101868.16;5116729;28;19916;-54
2023/08/11 00:50:57;;;;;;;;;;;;;;;27.28;100.00;101861.59;5099097;28;19951;-51
2023/08/11 00:53:23;;;;;;;;;;;;;;;27.65;100.00;101853.94;5099727;28;19916;-54
2023/08/11 00:55:48;;;;;;;;;;;;;;;27.98;95.39;101854.22;5117916;28;19920;-53
2023/08/11 00:58:14;;;;;;;;;;;;;;;29.41;84.41;101857.47;5134017;28;19916;-53
2023/08/11 01:00:40;;;;;;;;;;;;;;;29.18;83.57;101846.22;5133415;28;19991;-54
2023/08/11 01:03:06;;;;;;;;;;;;;;;29.33;81.01;101845.16;5133601;28;19916;-55
2023/08/11 01:05:34;;;;;;;;;;;;;;;27.95;90.46;101841.06;5098953;28;19987;-55
2023/08/11 01:08:03;;;;;;;;;;;;;;;27.71;96.44;101845.38;5105279;28;19916;-55
2023/08/11 01:10:45;;;;;;;;;;;;;;;28.31;92.60;101837.94;5134801;27;19927;-53
2023/08/11 01:13:20;;;;;;;;;;;;;;;28.06;93.46;101837.09;5107269;28;19920;-53
2023/08/11 01:15:57;;;;;;;;;;;;;;;27.60;98.38;101833.66;5099512;28;19927;-54
2023/08/11 01:18:23;;;;;;;;;;;;;;;27.24;100.00;101835.81;5117684;28;19938;-53
2023/08/11 01:20:52;;;;;;;;;;;;;;;27.50;100.00;101825.47;5111327;28;19955;-53
2023/08/11 01:23:19;;;;;;;;;;;;;;;26.98;100.00;101827.75;5123523;28;19916;-56
2023/08/11 01:25:45;;;;;;;;;;;;;;;27.02;100.00;101821.41;5097307;28;19916;-56
2023/08/11 01:28:10;;;;;;;;;;;;;;;27.00;100.00;101826.38;5087241;28;19996;-55
2023/08/11 01:30:36;;;;;;;;;;;;;;;26.96;100.00;101819.00;5115764;28;19923;-56
2023/08/11 01:33:03;;;;;;;;;;;;;;;27.02;100.00;101821.41;5120148;27;19920;-54
2023/08/11 01:35:28;;;;;;;;;;;;;;;27.00;100.00;101823.63;5117190;28;19955;-53
2023/08/11 01:37:54;;;;;;;;;;;;;;;26.85;100.00;101813.53;5117226;28;19916;-56
2023/08/11 01:40:19;;;;;;;;;;;;;;;26.91;100.00;101817.91;5119852;28;19916;-56
2023/08/11 01:42:45;;;;;;;;;;;;;;;26.79;100.00;101811.91;5097957;28;19940;-53
2023/08/11 01:45:11;;;;;;;;;;;;;;;26.68;100.00;101815.81;5095064;28;19916;-54
2023/08/11 01:47:41;;;;;;;;;;;;;;;26.59;100.00;101816.38;5117076;28;19916;-56
2023/08/11 01:50:08;;;;;;;;;;;;;;;26.49;100.00;101824.66;5103928;28;19970;-52
2023/08/11 01:52:34;;;;;;;;;;;;;;;26.38;100.00;101823.03;5090843;28;19912;-52
2023/08/11 01:55:02;;;;;;;;;;;;;;;26.51;100.00;101816.97;5110440;28;19912;-52
2023/08/11 01:57:27;;;;;;;;;;;;;;;26.77;100.00;101819.59;5116753;28;19999;-56
2023/08/11 01:59:52;;;;;;;;;;;;;;;26.48;100.00;101820.28;5132614;28;19938;-56
2023/08/11 02:02:18;;;;;;;;;;;;;;;26.43;100.00;101820.31;5127947;28;19975;-54
2023/08/11 02:04:45;;;;;;;;;;;;;;;26.29;100.00;101814.56;5110217;28;19923;-56
2023/08/11 02:07:11;;;;;;;;;;;;;;;26.38;100.00;101812.06;5116109;28;19919;-54
2023/08/11 02:09:36;;;;;;;;;;;;;;;26.66;100.00;101805.09;5098096;28;19916;-52
2023/08/11 02:12:02;;;;;;;;;;;;;;;27.11;100.00;101810.66;5097818;28;19916;-53
2023/08/11 02:14:27;;;;;;;;;;;;;;;26.64;100.00;101799.09;5115927;28;19924;-56
2023/08/11 02:16:53;;;;;;;;;;;;;;;26.57;100.00;101801.31;5098460;28;19952;-54
2023/08/11 02:19:19;;;;;;;;;;;;;;;26.49;100.00;101798.03;5132530;28;19934;-56
2023/08/11 02:21:44;;;;;;;;;;;;;;;26.53;100.00;101794.75;5100342;28;19922;-53
2023/08/11 02:24:10;;;;;;;;;;;;;;;26.65;100.00;101792.50;5116330;28;19923;-54
2023/08/11 02:26:35;;;;;;;;;;;;;;;26.59;100.00;101807.34;5116580;28;19977;-55
2023/08/11 02:29:03;;;;;;;;;;;;;;;26.25;100.00;101808.00;5098495;28;19923;-55
2023/08/11 02:31:33;;;;;;;;;;;;;;;26.53;100.00;101803.00;5140057;27;19920;-51
2023/08/11 02:33:59;;;;;;;;;;;;;;;26.58;100.00;101800.22;5085839;28;19916;-52
2023/08/11 02:36:24;;;;;;;;;;;;;;;26.60;100.00;101804.31;5115873;28;19927;-53
2023/08/11 02:38:50;;;;;;;;;;;;;;;26.92;100.00;101810.50;5097827;28;19916;-49
2023/08/11 02:41:18;;;;;;;;;;;;;;;26.66;100.00;101807.84;5116021;28;19916;-52
2023/08/11 02:43:46;;;;;;;;;;;;;;;26.68;100.00;101810.31;5116063;28;19923;-54
2023/08/11 02:46:12;;;;;;;;;;;;;;;26.33;100.00;101800.03;5115691;28;19987;-55
2023/08/11 02:48:38;;;;;;;;;;;;;;;25.76;100.00;101807.53;5132240;28;19916;-53
2023/08/11 02:51:04;;;;;;;;;;;;;;;26.02;100.00;101807.47;5117225;28;19995;-55
2023/08/11 02:53:30;;;;;;;;;;;;;;;26.36;100.00;101806.88;5132192;28;19920;-52
2023/08/11 02:55:56;;;;;;;;;;;;;;;26.44;100.00;101808.22;5097748;28;19991;-54
2023/08/11 02:58:21;;;;;;;;;;;;;;;26.29;100.00;101803.59;5131744;28;19923;-56
2023/08/11 03:00:47;;;;;;;;;;;;;;;26.11;100.00;101805.00;5131991;28;19916;-52
2023/08/11 03:03:13;;;;;;;;;;;;;;;26.06;100.00;101814.03;5097839;28;19916;-51
2023/08/11 03:05:39;;;;;;;;;;;;;;;26.03;100.00;101811.84;5115808;28;19920;-52
2023/08/11 03:08:04;;;;;;;;;;;;;;;26.15;100.00;101815.13;5115470;28;19916;-51
2023/08/11 03:10:29;;;;;;;;;;;;;;;26.23;100.00;101813.78;5098033;28;19926;-52
2023/08/11 03:12:55;;;;;;;;;;;;;;;26.22;100.00;101805.81;5098461;28;19958;-54
2023/08/11 03:15:20;;;;;;;;;;;;;;;26.23;100.00;101807.47;5131688;28;19931;-53
2023/08/11 03:17:46;;;;;;;;;;;;;;;26.18;100.00;101803.66;5097822;28;19923;-52
2023/08/11 03:20:14;;;;;;;;;;;;;;;26.27;100.00;101794.84;5097830;28;19942;-56
2023/08/11 03:22:42;;;;;;;;;;;;;;;26.06;100.00;101790.22;5138507;27;19927;-55
2023/08/11 03:25:09;;;;;;;;;;;;;;;26.28;100.00;101799.22;5097681;28;19940;-51
2023/08/11 03:27:35;;;;;;;;;;;;;;;26.28;100.00;101793.72;5097876;28;19916;-56
2023/08/11 03:30:01;;;;;;;;;;;;;;;26.18;100.00;101792.69;5115339;28;19962;-53
2023/08/11 03:32:26;;;;;;;;;;;;;;;25.90;100.00;101796.81;5115321;28;19917;-52
2023/08/11 03:34:53;;;;;;;;;;;;;;;26.16;100.00;101797.63;5131251;28;19916;-51
2023/08/11 03:37:20;;;;;;;;;;;;;;;26.22;100.00;101800.34;5131465;28;19920;-55
2023/08/11 03:39:46;;;;;;;;;;;;;;;26.13;100.00;101798.16;5131553;28;19938;-53
2023/08/11 03:42:12;;;;;;;;;;;;;;;26.16;100.00;101796.75;5097667;28;19916;-54
2023/08/11 03:44:38;;;;;;;;;;;;;;;26.02;100.00;101799.25;5097704;28;19941;-53
2023/08/11 03:47:05;;;;;;;;;;;;;;;25.99;100.00;101784.22;5097435;28;19927;-52
2023/08/11 03:49:31;;;;;;;;;;;;;;;25.94;100.00;101791.63;5117617;28;19983;-52
2023/08/11 03:51:57;;;;;;;;;;;;;;;25.82;100.00;101797.38;5106240;28;19923;-51
2023/08/11 03:54:22;;;;;;;;;;;;;;;25.88;100.00;101785.31;5107141;28;19916;-53
2023/08/11 03:56:48;;;;;;;;;;;;;;;25.99;100.00;101792.44;5101639;28;19924;-53
2023/08/11 03:59:14;;;;;;;;;;;;;;;25.95;100.00;101787.78;5118954;28;19916;-52
2023/08/11 04:01:40;;;;;;;;;;;;;;;25.97;100.00;101780.09;5135530;28;19916;-55
2023/08/11 04:04:06;;;;;;;;;;;;;;;26.01;100.00;101787.50;5101291;28;19922;-52
2023/08/11 04:06:35;;;;;;;;;;;;;;;25.97;100.00;101785.56;5119184;28;19998;-54
2023/08/11 04:09:01;;;;;;;;;;;;;;;26.06;100.00;101778.41;5134865;28;19927;-56
2023/08/11 04:11:27;;;;;;;;;;;;;;;26.12;100.00;101780.06;5135142;28;19916;-51
2023/08/11 04:13:52;;;;;;;;;;;;;;;25.78;100.00;101783.41;5118899;28;20010;-54
2023/08/11 04:16:18;;;;;;;;;;;;;;;25.68;100.00;101783.44;5134751;28;19920;-53
2023/08/11 04:18:44;;;;;;;;;;;;;;;25.54;100.00;101775.75;5134953;28;19931;-54
2023/08/11 04:21:10;;;;;;;;;;;;;;;25.87;100.00;101779.03;5118845;28;19939;-54
2023/08/11 04:23:36;;;;;;;;;;;;;;;25.82;100.00;101783.69;5136317;27;19948;-52
2023/08/11 04:26:02;;;;;;;;;;;;;;;25.87;100.00;101786.41;5134667;27;19912;-54
2023/08/11 04:28:27;;;;;;;;;;;;;;;25.76;100.00;101785.59;5134721;28;19916;-50
2023/08/11 04:30:53;;;;;;;;;;;;;;;25.69;100.00;101783.13;5100902;28;19916;-53
2023/08/11 04:33:20;;;;;;;;;;;;;;;25.08;100.00;101770.22;5134370;27;19930;-53
2023/08/11 04:35:48;;;;;;;;;;;;;;;25.00;100.00;101772.41;5118362;28;19921;-53
2023/08/11 04:38:14;;;;;;;;;;;;;;;24.75;100.00;101779.47;5100493;28;19923;-53
2023/08/11 04:40:41;;;;;;;;;;;;;;;25.71;100.00;101777.41;5134780;28;20418;-54
2023/08/11 04:43:08;;;;;;;;;;;;;;;25.46;100.00;101774.34;5134449;28;19916;-53
2023/08/11 04:45:37;;;;;;;;;;;;;;;25.67;100.00;101773.56;5134812;28;19947;-53
2023/08/11 04:48:04;;;;;;;;;;;;;;;25.30;100.00;101765.31;5134227;28;19912;-50
2023/08/11 04:50:32;;;;;;;;;;;;;;;25.34;100.00;101758.19;5134408;28;19931;-51
2023/08/11 04:52:58;;;;;;;;;;;;;;;25.54;100.00;101766.75;5134340;28;19924;-56
2023/08/11 04:55:24;;;;;;;;;;;;;;;25.48;100.00;101761.25;5100226;28;19924;-54
2023/08/11 04:57:50;;;;;;;;;;;;;;;25.42;100.00;101761.50;5118008;28;19916;-54
2023/08/11 05:00:16;;;;;;;;;;;;;;;25.42;100.00;101751.38;5117203;28;19912;-53
2023/08/11 05:02:43;;;;;;;;;;;;;;;25.56;100.00;101753.59;5137091;28;19924;-54
2023/08/11 05:05:08;;;;;;;;;;;;;;;25.65;100.00;101746.44;5125500;28;19916;-53
2023/08/11 05:07:34;;;;;;;;;;;;;;;25.27;100.00;101752.19;5117683;28;19975;-52
2023/08/11 05:10:00;;;;;;;;;;;;;;;25.31;100.00;101745.06;5117977;28;19941;-54
2023/08/11 05:12:25;;;;;;;;;;;;;;;25.85;100.00;101756.56;5117733;28;19931;-55
2023/08/11 05:14:51;;;;;;;;;;;;;;;25.50;100.00;101750.03;5117711;28;19916;-51
2023/08/11 05:17:16;;;;;;;;;;;;;;;25.55;100.00;101746.47;5116011;28;19943;-53
2023/08/11 05:19:42;;;;;;;;;;;;;;;25.58;100.00;101745.91;5117874;28;19922;-55
2023/08/11 05:22:07;;;;;;;;;;;;;;;25.49;100.00;101745.66;5099953;28;19962;-54
2023/08/11 05:24:33;;;;;;;;;;;;;;;25.51;100.00;101748.94;5117595;28;19916;-51
2023/08/11 05:26:58;;;;;;;;;;;;;;;25.31;100.00;101741.53;5117252;28;20406;-54
2023/08/11 05:29:24;;;;;;;;;;;;;;;25.43;100.00;101746.72;5117619;28;19927;-50
2023/08/11 05:31:49;;;;;;;;;;;;;;;25.05;100.00;101739.59;5117487;28;19937;-50
2023/08/11 05:34:15;;;;;;;;;;;;;;;25.23;100.00;101745.63;5117049;28;19916;-50
2023/08/11 05:36:40;;;;;;;;;;;;;;;24.92;100.00;101740.13;5117185;28;19920;-50
2023/08/11 05:39:08;;;;;;;;;;;;;;;24.83;100.00;101741.75;5117422;28;19944;-51
2023/08/11 05:41:33;;;;;;;;;;;;;;;24.93;100.00;101741.78;5117055;28;19935;-51
2023/08/11 05:43:59;;;;;;;;;;;;;;;24.86;100.00;101752.97;5117658;28;19916;-51
2023/08/11 05:46:24;;;;;;;;;;;;;;;24.86;100.00;101746.66;5116944;28;19930;-49
2023/08/11 05:48:51;;;;;;;;;;;;;;;24.87;100.00;101745.56;5111069;28;19916;-53
2023/08/11 05:51:16;;;;;;;;;;;;;;;25.04;100.00;101748.88;5114714;28;19976;-53
2023/08/11 05:53:42;;;;;;;;;;;;;;;24.81;100.00;101752.97;5117072;28;19924;-50
2023/08/11 05:56:08;;;;;;;;;;;;;;;25.08;100.00;101746.44;5116775;28;19920;-55
2023/08/11 05:58:33;;;;;;;;;;;;;;;25.18;100.00;101748.38;5116935;28;19943;-55
2023/08/11 06:01:00;;;;;;;;;;;;;;;25.17;100.00;101744.00;5116712;28;19938;-51
2023/08/11 06:03:30;;;;;;;;;;;;;;;25.02;100.00;101747.50;5122103;28;19916;-51
2023/08/11 06:05:59;;;;;;;;;;;;;;;25.38;100.00;101747.53;5111939;28;19920;-52
2023/08/11 06:08:25;;;;;;;;;;;;;;;25.13;100.00;101746.44;5116230;28;19924;-54
2023/08/11 06:10:51;;;;;;;;;;;;;;;25.38;100.00;101741.25;5116718;28;19916;-50
2023/08/11 06:13:16;;;;;;;;;;;;;;;25.52;100.00;101750.56;5119793;28;19943;-53
2023/08/11 06:15:41;;;;;;;;;;;;;;;25.12;100.00;101742.06;5116638;28;19928;-54
2023/08/11 06:18:07;;;;;;;;;;;;;;;25.22;100.00;101738.50;5123595;28;19990;-53
2023/08/11 06:20:33;;;;;;;;;;;;;;;25.69;100.00;101738.50;5116331;28;19915;-51
2023/08/11 06:22:59;;;;;;;;;;;;;;;25.24;100.00;101739.06;5116481;28;19991;-55
2023/08/11 06:25:24;;;;;;;;;;;;;;;24.77;100.00;101743.63;5120254;28;19931;-52
2023/08/11 06:27:50;;;;;;;;;;;;;;;25.53;100.00;101746.75;5116395;28;20294;-53
2023/08/11 06:30:15;;;;;;;;;;;;;;;25.74;100.00;101757.66;5116142;28;19955;-53
2023/08/11 06:32:42;;;;;;;;;;;;;;;25.98;100.00;101759.81;5116227;28;19920;-54
2023/08/11 06:35:08;;;;;;;;;;;;;;;25.53;100.00;101757.69;5117272;28;19923;-53
2023/08/11 06:37:34;;;;;;;;;;;;;;;26.21;100.00;101755.69;5116194;28;19920;-54
2023/08/11 06:39:59;;;;;;;;;;;;;;;26.03;100.00;101763.38;5115790;28;19947;-54
2023/08/11 06:42:25;;;;;;;;;;;;;;;26.29;100.00;101765.22;5115998;28;19916;-54
2023/08/11 06:45:01;;;;;;;;;;;;;;;26.33;100.00;101758.09;5099683;28;19916;-50
2023/08/11 06:47:26;;;;;;;;;;;;;;;26.20;100.00;101760.31;5115936;28;19939;-50
2023/08/11 06:49:52;;;;;;;;;;;;;;;26.65;100.00;101761.53;5115831;28;19938;-54
2023/08/11 06:52:18;;;;;;;;;;;;;;;26.57;100.00;101769.22;5115535;28;19937;-56
2023/08/11 06:54:43;;;;;;;;;;;;;;;26.71;100.00;101761.19;5115753;28;19920;-54
2023/08/11 06:57:10;;;;;;;;;;;;;;;26.92;100.00;101763.84;5115264;28;19924;-55
2023/08/11 06:59:36;;;;;;;;;;;;;;;26.68;100.00;101772.72;5115938;28;19911;-55
2023/08/11 07:02:01;;;;;;;;;;;;;;;26.66;100.00;101777.69;5115465;28;19919;-53
2023/08/11 07:04:27;;;;;;;;;;;;;;;27.25;100.00;101772.41;5115080;28;19943;-55
2023/08/11 07:06:54;;;;;;;;;;;;;;;27.45;100.00;101776.91;5107339;28;19916;-56
2023/08/11 07:09:20;;;;;;;;;;;;;;;27.13;100.00;101775.50;5115455;28;19916;-55
2023/08/11 07:11:46;;;;;;;;;;;;;;;26.98;100.00;101767.38;5115706;28;19979;-53
2023/08/11 07:14:11;;;;;;;;;;;;;;;27.23;100.00;101765.53;5116397;28;19916;-54
2023/08/11 07:16:36;;;;;;;;;;;;;;;27.22;100.00;101781.22;5105140;28;19920;-49
2023/08/11 07:19:02;;;;;;;;;;;;;;;27.46;100.00;101780.47;5113717;28;19964;-52
2023/08/11 07:21:27;;;;;;;;;;;;;;;27.04;100.00;101771.72;5115443;28;19938;-54
2023/08/11 07:23:53;;;;;;;;;;;;;;;27.63;100.00;101775.38;5117047;28;19969;-52
2023/08/11 07:26:18;;;;;;;;;;;;;;;27.27;100.00;101772.09;5125429;28;19927;-53
2023/08/11 07:28:44;;;;;;;;;;;;;;;27.87;100.00;101769.09;5092285;28;19916;-51
2023/08/11 07:31:10;;;;;;;;;;;;;;;27.86;100.00;101766.66;5107043;28;19927;-52
2023/08/11 07:33:35;;;;;;;;;;;;;;;28.09;100.00;101770.50;5113533;28;19916;-53
2023/08/11 07:36:01;;;;;;;;;;;;;;;28.24;100.00;101768.75;5110473;28;19921;-54
2023/08/11 07:38:26;;;;;;;;;;;;;;;28.30;100.00;101775.81;5112988;28;19938;-52
2023/08/11 07:40:52;;;;;;;;;;;;;;;28.20;100.00;101768.50;5114654;28;19916;-56
2023/08/11 07:43:17;;;;;;;;;;;;;;;28.40;100.00;101781.19;5112603;28;19938;-56
2023/08/11 07:45:43;;;;;;;;;;;;;;;28.65;100.00;101784.72;5116744;28;19916;-54
2023/08/11 07:48:08;;;;;;;;;;;;;;;28.52;100.00;101779.94;5112459;28;19936;-55
2023/08/11 07:50:35;;;;;;;;;;;;;;;28.66;100.00;101780.03;5112623;28;19959;-54
2023/08/11 07:53:01;;;;;;;;;;;;;;;28.71;100.00;101782.69;5112398;28;19916;-53
2023/08/11 07:55:26;;;;;;;;;;;;;;;28.94;100.00;101778.28;5114481;28;19938;-52
2023/08/11 07:57:52;;;;;;;;;;;;;;;28.80;100.00;101782.88;5112711;28;19946;-54
2023/08/11 08:00:19;;;;;;;;;;;;;;;28.84;100.00;101784.75;5111678;28;19927;-53
2023/08/11 08:02:45;;;;;;;;;;;;;;;29.07;100.00;101795.19;5114891;28;19916;-55
2023/08/11 08:05:11;;;;;;;;;;;;;;;28.88;100.00;101785.00;5114228;28;19941;-56
2023/08/11 08:07:36;;;;;;;;;;;;;;;29.30;98.68;101786.00;5111776;28;20020;-52
2023/08/11 08:10:08;;;;;;;;;;;;;;;29.20;100.00;101794.41;5111158;28;19949;-53
2023/08/11 08:12:33;;;;;;;;;;;;;;;28.90;100.00;101785.50;5111151;28;19916;-52
2023/08/11 08:14:59;;;;;;;;;;;;;;;29.77;97.41;101790.72;5116926;28;19926;-55
2023/08/11 08:17:25;;;;;;;;;;;;;;;29.74;97.12;101789.38;5097392;28;19920;-53
2023/08/11 08:19:50;;;;;;;;;;;;;;;29.76;96.41;101787.13;5114713;28;19900;-54
2023/08/11 08:22:15;;;;;;;;;;;;;;;29.75;96.22;101787.44;5114508;28;19931;-56
2023/08/11 08:24:41;;;;;;;;;;;;;;;29.74;95.71;101785.81;5115857;28;19923;-55
2023/08/11 08:27:06;;;;;;;;;;;;;;;29.71;95.77;101783.66;5100437;28;19951;-54
2023/08/11 08:29:34;;;;;;;;;;;;;;;30.08;94.83;101783.81;5110843;28;19916;-55
2023/08/11 08:31:59;;;;;;;;;;;;;;;29.78;97.55;101781.34;5114420;28;19938;-55
2023/08/11 08:34:24;;;;;;;;;;;;;;;30.02;94.97;101783.13;5114244;28;19916;-55
2023/08/11 08:36:50;;;;;;;;;;;;;;;30.42;93.55;101785.34;5117089;28;19924;-55
2023/08/11 08:39:15;;;;;;;;;;;;;;;30.59;91.03;101784.69;5116513;28;20371;-55
2023/08/11 08:41:42;;;;;;;;;;;;;;;31.13;88.34;101793.16;5083456;28;19920;-55
2023/08/11 08:44:07;;;;;;;;;;;;;;;31.97;79.61;101789.97;5119931;28;19921;-56
2023/08/11 08:46:33;;;;;;;;;;;;;;;31.25;84.02;101792.63;5114496;28;19995;-57
2023/08/11 08:49:17;;;;;;;;;;;;;;;30.82;84.08;101784.78;5098940;28;19928;-55
2023/08/11 08:51:44;;;;;;;;;;;;;;;30.92;85.54;101786.47;5100465;28;19912;-57
2023/08/11 08:54:09;;;;;;;;;;;;;;;30.79;86.39;101788.97;5111041;28;19920;-54
2023/08/11 08:56:37;;;;;;;;;;;;;;;30.97;85.49;101789.94;5120684;28;19942;-53
2023/08/11 08:59:03;;;;;;;;;;;;;;;31.17;82.85;101787.81;5110936;28;19919;-52
2023/08/11 09:01:28;;;;;;;;;;;;;;;30.98;82.39;101786.06;5111995;28;19917;-54
2023/08/11 09:03:55;;;;;;;;;;;;;;;30.67;81.97;101775.69;5098102;28;19916;-52
2023/08/11 09:06:21;;;;;;;;;;;;;;;30.99;79.14;101779.41;5123485;28;19920;-52
2023/08/11 09:08:46;;;;;;;;;;;;;;;31.31;80.29;101780.31;5111079;28;19987;-53
2023/08/11 09:11:12;;;;;;;;;;;;;;;31.27;79.89;101786.78;5117324;28;19923;-52
2023/08/11 09:13:38;;;;;;;;;;;;;;;31.67;78.52;101784.09;5117680;28;19926;-48
2023/08/11 09:16:03;;;;;;;;;;;;;;;31.89;76.41;101780.47;5120220;28;19942;-50
2023/08/11 09:18:29;;;;;;;;;;;;;;;32.65;72.46;101790.78;5117226;28;19924;-54
2023/08/11 09:20:54;;;;;;;;;;;;;;;32.08;74.33;101786.88;5117363;28;19969;-54
2023/08/11 09:23:20;;;;;;;;;;;;;;;32.38;72.63;101784.38;5117357;28;19950;-51
2023/08/11 09:25:45;;;;;;;;;;;;;;;32.59;70.96;101795.66;5117231;28;19991;-52
2023/08/11 09:28:11;;;;;;;;;;;;;;;32.80;69.06;101778.44;5116759;28;20088;-55
2023/08/11 09:30:37;;;;;;;;;;;;;;;33.61;66.05;101781.63;5116807;28;19912;-55
2023/08/11 09:33:05;;;;;;;;;;;;;;;34.72;62.42;101783.66;5117001;28;19934;-54
2023/08/11 09:35:32;;;;;;;;;;;;;;;34.97;59.73;101781.78;5120067;28;19951;-55
2023/08/11 09:37:59;;;;;;;;;;;;;;;35.11;55.92;101791.84;5123530;28;19931;-55
2023/08/11 09:40:25;;;;;;;;;;;;;;;35.05;55.50;101795.97;5127187;28;19926;-56
2023/08/11 09:42:54;;;;;;;;;;;;;;;35.45;55.31;101798.19;5116539;28;19916;-53
2023/08/11 09:45:21;;;;;;;;;;;;;;;35.45;55.31;101798.19;5103738;28;19920;-55
2023/08/11 09:47:47;;;;;;;;;;;;;;;37.01;50.96;101783.59;5115663;28;19938;-54
2023/08/11 09:50:14;;;;;;;;;;;;;;;37.68;47.93;101796.13;5115954;28;19951;-56
2023/08/11 09:52:41;;;;;;;;;;;;;;;36.58;49.19;101788.72;5116386;28;19927;-57
2023/08/11 09:55:11;;;;;;;;;;;;;;;37.20;48.37;101791.31;5108467;28;19917;-55
2023/08/11 09:57:37;;;;;;;;;;;;;;;37.80;46.17;101795.22;5109608;28;19955;-54
2023/08/11 10:00:11;;;;;;;;;;;;;;;37.05;47.95;101792.06;5111664;28;19921;-52
2023/08/11 10:02:39;;;;;;;;;;;;;;;36.41;50.01;101789.78;5121005;28;19927;-56
2023/08/11 10:05:07;;;;;;;;;;;;;;;36.77;49.19;101790.88;5112583;28;19916;-56
2023/08/11 10:07:37;;;;;;;;;;;;;;;36.63;49.62;101791.25;5103790;28;19958;-55
2023/08/11 10:10:10;;;;;;;;;;;;;;;36.63;49.62;101791.25;5098185;28;19948;-56
2023/08/11 10:12:40;;;;;;;;;;;;;;;36.61;51.48;101796.38;5111434;28;19938;-54
2023/08/11 10:15:08;;;;;;;;;;;;;;;36.86;51.49;101807.44;5116379;28;19916;-56
2023/08/11 10:17:33;;;;;;;;;;;;;;;36.86;51.49;101807.44;5118160;28;19928;-54
2023/08/11 10:20:04;;;;;;;;;;;;;;;38.79;46.76;101810.25;5116191;28;19939;-55
2023/08/11 10:22:30;;;;;;;;;;;;;;;39.30;45.01;101812.84;5115677;28;19920;-56
2023/08/11 10:24:56;;;;;;;;;;;;;;;39.79;42.87;101807.72;5116354;28;19954;-55
2023/08/11 10:27:21;;;;;;;;;;;;;;;39.93;42.59;101807.16;5122280;28;19920;-54
2023/08/11 10:29:47;;;;;;;;;;;;;;;39.68;43.05;101801.16;5109721;28;19923;-57
2023/08/11 10:32:14;;;;;;;;;;;;;;;40.47;42.72;101801.53;5114938;28;19920;-54
2023/08/11 10:34:40;;;;;;;;;;;;;;;40.96;40.12;101799.75;5114959;28;19920;-56
2023/08/11 10:37:06;;;;;;;;;;;;;;;40.04;40.22;101812.91;5114447;28;19920;-57
2023/08/11 10:39:31;;;;;;;;;;;;;;;40.52;40.71;101806.00;5116007;28;19951;-53
2023/08/11 10:41:59;;;;;;;;;;;;;;;40.99;39.68;101796.16;5115577;28;19917;-53
2023/08/11 10:44:29;;;;;;;;;;;;;;;40.99;39.68;101796.16;5114747;28;19982;-54
2023/08/11 10:46:58;;;;;;;;;;;;;;;40.99;39.68;101796.16;5099276;28;19969;-53
2023/08/11 10:49:34;;;;;;;;;;;;;;;40.76;39.16;101799.13;5113710;28;19943;-55
2023/08/11 10:52:01;;;;;;;;;;;;;;;41.19;38.21;101801.59;5115491;28;19924;-55
2023/08/11 10:54:26;;;;;;;;;;;;;;;41.38;38.38;101800.56;5112429;28;19924;-57
2023/08/11 10:56:52;;;;;;;;;;;;;;;41.38;38.38;101800.56;5115460;28;19927;-56
2023/08/11 10:59:18;;;;;;;;;;;;;;;41.43;37.22;101808.66;5112974;28;19939;-56
2023/08/11 11:01:45;;;;;;;;;;;;;;;41.43;37.22;101808.66;5113850;28;19916;-54
2023/08/11 11:04:11;;;;;;;;;;;;;;;41.43;37.22;101808.66;5114789;28;19916;-54
2023/08/11 11:06:39;;;;;;;;;;;;;;;41.43;37.22;101808.66;5118332;28;19945;-56
2023/08/11 11:09:06;;;;;;;;;;;;;;;41.43;37.22;101808.66;5114039;28;19912;-53
2023/08/11 11:11:32;;;;;;;;;;;;;;;-147.27;100.00;65176.34;5113362;28;19923;-55
2023/08/11 11:13:58;;;;;;;;;;;;;;;-147.27;100.00;65176.34;5113015;28;19916;-57
2023/08/11 11:16:23;;;;;;;;;;;;;;;-147.27;100.00;65176.34;5103881;28;19924;-57
2023/08/11 11:18:51;;;;;;;;;;;;;;;-147.27;100.00;65176.34;5095984;28;21510;-55
2023/08/11 11:21:20;;;;;;;;;;;;;;;-147.27;100.00;65176.34;5121459;28;19976;-58
2023/08/11 11:23:47;;;;;;;;;;;;;;;-147.27;100.00;65176.34;5112296;28;19950;-57
2023/08/11 11:26:20;;;;;;;;;;;;;;;-147.27;100.00;65176.34;5104480;28;19983;-54
2023/08/11 11:28:45;;;;;;;;;;;;;;;-147.27;100.00;65176.34;5113710;28;19916;-58
2023/08/11 11:31:12;;;;;;;;;;;;;;;-147.27;100.00;65176.34;5117242;28;19931;-57
2023/08/11 11:33:37;;;;;;;;;;;;;;;-147.27;100.00;65176.34;5114742;28;19922;-57
2023/08/11 11:36:03;;;;;;;;;;;;;;;-147.27;100.00;65176.34;5114841;28;19919;-58
2023/08/11 11:38:28;;;;;;;;;;;;;;;-147.27;100.00;65176.34;5120571;28;20230;-57
2023/08/11 11:40:54;;;;;;;;;;;;;;;-147.27;100.00;65176.34;5106406;28;19916;-58
2023/08/11 11:43:19;;;;;;;;;;;;;;;-147.27;100.00;65176.34;5113266;28;19920;-58
2023/08/11 11:45:47;;;;;;;;;;;;;;;-147.27;100.00;65176.34;5114784;28;19916;-58
2023/08/11 11:48:12;;;;;;;;;;;;;;;-147.27;100.00;65176.34;5123614;28;19916;-57
2023/08/11 11:50:38;;;;;;;;;;;;;;;-147.27;100.00;65176.34;5114106;28;19917;-57
2023/08/11 11:53:05;;;;;;;;;;;;;;;-147.27;100.00;65176.34;5104409;28;19916;-57
2023/08/11 11:55:30;;;;;;;;;;;;;;;-147.27;100.00;65176.34;5114845;28;19931;-57
2023/08/11 11:57:55;;;;;;;;;;;;;;;-147.27;100.00;65176.34;5113180;28;20379;-59
2023/08/11 12:00:22;;;;;;;;;;;;;;;-147.27;100.00;65176.34;5114836;28;19942;-58
2023/08/11 12:02:48;;;;;;;;;;;;;;;-147.27;100.00;65176.34;5113620;28;19916;-58
2023/08/11 12:05:14;;;;;;;;;;;;;;;-147.27;100.00;65176.34;5113698;28;19939;-58
2023/08/11 12:07:40;;;;;;;;;;;;;;;-147.27;100.00;65176.34;5113665;28;19928;-55
2023/08/11 12:10:06;;;;;;;;;;;;;;;-147.27;100.00;65176.34;5117106;28;19983;-57
2023/08/11 12:12:31;;;;;;;;;;;;;;;-147.27;100.00;65176.34;5118820;28;19923;-56
2023/08/11 12:15:01;;;;;;;;;;;;;;;-147.27;100.00;65176.34;5118389;28;19916;-58
2023/08/11 12:17:29;;;;;;;;;;;;;;;-147.27;100.00;65176.34;5117998;28;19920;-57
2023/08/11 12:19:56;;;;;;;;;;;;;;;-147.27;100.00;65176.34;5118360;28;19979;-57
2023/08/11 12:22:21;;;;;;;;;;;;;;;-147.27;100.00;65176.34;5100346;28;19920;-57
2023/08/11 12:24:47;;;;;;;;;;;;;;;-147.27;100.00;65176.34;5118228;28;19916;-58